McGregor, North Dakota
Current Conditions -  °F | °C
As of 5:55 PM on Wednesday 26 Nov 2014 (Local Time) from KD60 Reporting Station
Overcast Overcast  
Wind Chill: -16°   Ceiling: 5000
Heat Index: -2°   Visibility: 10mi
Dew Point: -4°   Wind: 7mph
Humidity: 92%   Direction: 100°E
Pressure: 30.4"   Gusts: NA
Location:  48.6°N, 102.93°W
Report Text: KD60 262355Z AUTO 10006KT 10SM OVC050 M19/M20 A3040 RMK AO2
Loading
Personal Weather Stations






























Interactive Weather Map New forecast layout! Learn more

10-Day Weather Forecast

Advertisements
Track Severe Weather on mobile